createdAt,value
2023-01-22T00:00:20.305Z,100.00
2023-01-22T00:02:19.069Z,100.00
2023-01-22T00:04:17.744Z,100.00
2023-01-22T00:06:19.322Z,100.00
2023-01-22T00:08:19.144Z,100.00
2023-01-22T00:10:18.385Z,100.00
2023-01-22T00:12:16.714Z,100.00
2023-01-22T00:14:15.069Z,100.00
2023-01-22T00:16:15.180Z,100.00
2023-01-22T00:18:16.794Z,100.00
2023-01-22T00:20:16.162Z,100.00
2023-01-22T00:22:14.678Z,100.00
2023-01-22T00:24:14.818Z,100.00
2023-01-22T00:26:15.490Z,100.00
2023-01-22T00:28:17.070Z,100.00
2023-01-22T00:30:15.653Z,100.00
2023-01-22T00:32:14.159Z,100.00
2023-01-22T00:34:12.751Z,100.00
2023-01-22T00:36:13.424Z,100.00
2023-01-22T00:38:12.058Z,100.00
2023-01-22T00:40:14.107Z,100.00
2023-01-22T00:42:12.204Z,100.00
2023-01-22T00:44:10.487Z,100.00
2023-01-22T00:46:09.871Z,100.00
2023-01-22T00:48:08.609Z,100.00
2023-01-22T00:50:08.577Z,100.00
2023-01-22T00:52:06.947Z,100.00
2023-01-22T00:54:05.425Z,100.00
2023-01-22T00:56:05.464Z,100.00
2023-01-22T00:58:03.858Z,100.00
2023-01-22T01:00:02.697Z,100.00
2023-01-22T01:02:01.797Z,100.00
2023-01-22T01:04:03.265Z,100.00
2023-01-22T01:06:05.826Z,100.00
2023-01-22T01:08:04.114Z,100.00
2023-01-22T01:10:02.389Z,100.00
2023-01-22T01:12:02.225Z,100.00
2023-01-22T01:14:00.715Z,100.00
2023-01-22T01:16:12.515Z,100.00
2023-01-22T01:18:13.073Z,100.00
2023-01-22T01:20:12.513Z,100.00
2023-01-22T01:22:11.286Z,100.00
2023-01-22T01:24:11.456Z,100.00
2023-01-22T01:26:11.512Z,100.00
2023-01-22T01:28:11.467Z,100.00
2023-01-22T01:30:13.349Z,100.00
2023-01-22T01:32:11.728Z,100.00
2023-01-22T01:34:10.032Z,100.00
2023-01-22T01:36:11.927Z,100.00
2023-01-22T01:38:10.074Z,100.00
2023-01-22T01:40:13.042Z,100.00
2023-01-22T01:42:11.353Z,100.00
2023-01-22T01:44:13.631Z,100.00
2023-01-22T01:46:19.141Z,100.00
2023-01-22T01:48:26.334Z,100.00
2023-01-22T01:50:28.637Z,100.00
2023-01-22T01:52:26.853Z,100.00
2023-01-22T01:54:25.762Z,100.00
2023-01-22T01:56:28.329Z,100.00
2023-01-22T01:58:29.819Z,100.00
2023-01-22T02:00:34.956Z,100.00
2023-01-22T02:02:33.159Z,100.00
2023-01-22T02:04:32.019Z,100.00
2023-01-22T02:06:30.550Z,100.00
2023-01-22T02:08:29.105Z,100.00
2023-01-22T02:10:28.232Z,100.00
2023-01-22T02:12:27.591Z,100.00
2023-01-22T02:14:33.429Z,100.00
2023-01-22T02:16:33.321Z,100.00
2023-01-22T02:18:31.570Z,100.00
2023-01-22T02:20:30.058Z,100.00
2023-01-22T02:22:32.407Z,100.00
2023-01-22T02:24:31.993Z,100.00
2023-01-22T02:26:30.616Z,100.00
2023-01-22T02:28:28.867Z,100.00
2023-01-22T02:30:27.529Z,100.00
2023-01-22T02:32:28.942Z,100.00
2023-01-22T02:34:27.333Z,100.00
2023-01-22T02:36:25.541Z,100.00
2023-01-22T02:38:25.697Z,100.00
2023-01-22T02:40:23.959Z,100.00
2023-01-22T02:42:22.312Z,100.00
2023-01-22T02:44:20.847Z,100.00
2023-01-22T02:46:19.243Z,100.00
2023-01-22T02:48:17.476Z,100.00
2023-01-22T02:50:16.193Z,100.00
2023-01-22T02:52:14.698Z,100.00
2023-01-22T02:54:14.355Z,100.00
2023-01-22T02:56:13.589Z,100.00
2023-01-22T02:58:11.821Z,100.00
2023-01-22T03:00:11.502Z,100.00
2023-01-22T03:02:09.881Z,100.00
2023-01-22T03:04:11.795Z,100.00
2023-01-22T03:06:10.070Z,100.00
2023-01-22T03:08:08.318Z,100.00
2023-01-22T03:10:12.120Z,100.00
2023-01-22T03:12:10.817Z,100.00
2023-01-22T03:14:26.916Z,100.00
2023-01-22T03:16:43.163Z,100.00
2023-01-22T03:19:01.848Z,100.00
2023-01-22T03:21:19.002Z,100.00
2023-01-22T03:23:17.380Z,100.00
2023-01-22T03:25:17.050Z,100.00
2023-01-22T03:27:16.579Z,100.00
2023-01-22T03:29:14.937Z,100.00
2023-01-22T03:31:14.402Z,100.00
2023-01-22T03:33:12.910Z,100.00
2023-01-22T03:35:11.224Z,100.00
2023-01-22T03:37:27.439Z,100.00
2023-01-22T03:39:27.975Z,100.00
2023-01-22T03:41:28.040Z,100.00
2023-01-22T03:43:26.504Z,100.00
2023-01-22T03:45:24.786Z,100.00
2023-01-22T03:47:23.395Z,100.00
2023-01-22T03:49:22.159Z,100.00
2023-01-22T03:51:24.790Z,100.00
2023-01-22T03:53:23.244Z,100.00
2023-01-22T03:55:21.733Z,100.00
2023-01-22T03:57:21.659Z,100.00
2023-01-22T03:59:20.086Z,100.00
2023-01-22T04:01:20.440Z,100.00
2023-01-22T04:03:19.112Z,100.00
2023-01-22T04:05:17.459Z,100.00
2023-01-22T04:07:16.086Z,100.00
2023-01-22T04:09:15.661Z,100.00
2023-01-22T04:11:20.193Z,100.00
2023-01-22T04:13:21.203Z,100.00
2023-01-22T04:15:21.816Z,100.00
2023-01-22T04:17:21.338Z,100.00
2023-01-22T04:19:42.757Z,100.00
2023-01-22T04:21:57.308Z,100.00
2023-01-22T04:23:56.816Z,100.00
2023-01-22T04:25:55.170Z,100.00
2023-01-22T04:27:53.719Z,100.00
2023-01-22T04:29:54.082Z,100.00
2023-01-22T04:31:54.282Z,100.00
2023-01-22T04:34:15.200Z,100.00
2023-01-22T04:36:21.499Z,100.00
2023-01-22T04:38:20.016Z,100.00
2023-01-22T04:40:18.618Z,100.00
2023-01-22T04:42:17.472Z,100.00
2023-01-22T04:44:16.072Z,100.00
2023-01-22T04:46:16.191Z,100.00
2023-01-22T04:48:14.523Z,100.00
2023-01-22T04:50:17.640Z,100.00
2023-01-22T04:52:16.116Z,100.00
2023-01-22T04:54:14.239Z,100.00
2023-01-22T04:56:12.590Z,100.00
2023-01-22T04:58:10.971Z,100.00
2023-01-22T05:00:12.625Z,100.00
2023-01-22T05:02:12.374Z,100.00
2023-01-22T05:04:11.116Z,100.00
2023-01-22T05:06:09.608Z,100.00
2023-01-22T05:08:08.359Z,100.00
2023-01-22T05:10:09.387Z,100.00
2023-01-22T05:12:10.754Z,100.00
2023-01-22T05:14:12.497Z,100.00
2023-01-22T05:16:10.872Z,100.00
2023-01-22T05:18:10.568Z,100.00
2023-01-22T05:20:13.770Z,100.00
2023-01-22T05:22:12.090Z,100.00
2023-01-22T05:24:10.929Z,100.00
2023-01-22T05:26:10.193Z,100.00
2023-01-22T05:28:15.107Z,100.00
2023-01-22T05:30:32.109Z,100.00
2023-01-22T05:32:57.383Z,100.00
2023-01-22T05:34:58.187Z,100.00
2023-01-22T05:36:57.320Z,100.00
2023-01-22T05:38:57.727Z,100.00
2023-01-22T05:40:58.058Z,100.00
2023-01-22T05:42:59.300Z,100.00
2023-01-22T05:44:58.600Z,100.00
2023-01-22T05:46:57.759Z,100.00
2023-01-22T05:49:16.935Z,100.00
2023-01-22T05:51:17.070Z,100.00
2023-01-22T05:53:15.824Z,100.00
2023-01-22T05:55:15.135Z,100.00
2023-01-22T05:57:14.903Z,100.00
2023-01-22T05:59:13.183Z,100.00
2023-01-22T06:01:13.098Z,100.00
2023-01-22T06:03:15.909Z,100.00
2023-01-22T06:05:20.730Z,100.00
2023-01-22T06:07:29.235Z,100.00
2023-01-22T06:09:27.533Z,100.00
2023-01-22T06:11:27.563Z,100.00
2023-01-22T06:13:25.999Z,100.00
2023-01-22T06:15:27.573Z,100.00
2023-01-22T06:17:34.616Z,100.00
2023-01-22T06:19:33.315Z,100.00
2023-01-22T06:21:32.725Z,100.00
2023-01-22T06:23:32.938Z,100.00
2023-01-22T06:25:31.482Z,100.00
2023-01-22T06:27:39.052Z,100.00
2023-01-22T06:29:39.883Z,100.00
2023-01-22T06:31:38.605Z,100.00
2023-01-22T06:33:41.273Z,100.00
2023-01-22T06:35:39.764Z,100.00
2023-01-22T06:37:38.229Z,98.71
2023-01-22T06:39:38.200Z,96.01
2023-01-22T06:41:56.725Z,94.97
2023-01-22T06:43:55.076Z,95.38
2023-01-22T06:45:53.693Z,98.09
2023-01-22T06:48:00.754Z,99.40
2023-01-22T06:49:59.745Z,100.00
2023-01-22T06:51:57.999Z,100.00
2023-01-22T06:53:56.319Z,100.00
2023-01-22T06:55:55.956Z,100.00
2023-01-22T06:57:56.023Z,100.00
2023-01-22T06:59:54.379Z,100.00
2023-01-22T07:01:52.715Z,100.00
2023-01-22T07:03:51.012Z,100.00
2023-01-22T07:05:57.000Z,100.00
2023-01-22T07:07:55.966Z,100.00
2023-01-22T07:09:54.159Z,100.00
2023-01-22T07:11:53.716Z,100.00
2023-01-22T07:13:51.852Z,100.00
2023-01-22T07:15:50.388Z,100.00
2023-01-22T07:17:51.433Z,100.00
2023-01-22T07:19:49.596Z,100.00
2023-01-22T07:21:47.714Z,100.00
2023-01-22T07:23:45.909Z,100.00
2023-01-22T07:25:44.770Z,100.00
2023-01-22T07:27:44.392Z,100.00
2023-01-22T07:29:42.754Z,100.00
2023-01-22T07:31:40.821Z,100.00
2023-01-22T07:33:39.322Z,100.00
2023-01-22T07:35:37.523Z,100.00
2023-01-22T07:37:37.494Z,100.00
2023-01-22T07:39:36.581Z,100.00
2023-01-22T07:41:34.715Z,100.00
2023-01-22T07:43:35.027Z,100.00
2023-01-22T07:45:33.296Z,100.00
2023-01-22T07:47:31.553Z,100.00
2023-01-22T07:49:29.908Z,100.00
2023-01-22T07:51:27.965Z,100.00
2023-01-22T07:53:26.259Z,100.00
2023-01-22T07:55:25.227Z,100.00
2023-01-22T07:57:23.402Z,100.00
2023-01-22T07:59:23.176Z,100.00
2023-01-22T08:01:21.348Z,100.00
2023-01-22T08:03:19.668Z,100.00
2023-01-22T08:05:17.829Z,100.00
2023-01-22T08:07:17.997Z,100.00
2023-01-22T08:09:23.473Z,100.00
2023-01-22T08:11:22.422Z,99.03
2023-01-22T08:13:20.654Z,98.79
2023-01-22T08:15:20.689Z,98.67
2023-01-22T08:17:19.126Z,99.29
2023-01-22T08:19:17.290Z,99.36
2023-01-22T08:21:15.572Z,99.98
2023-01-22T08:23:14.021Z,100.00
2023-01-22T08:25:12.537Z,100.00
2023-01-22T08:27:11.095Z,100.00
2023-01-22T08:29:09.335Z,100.00
2023-01-22T08:31:16.485Z,98.72
2023-01-22T08:33:22.694Z,98.75
2023-01-22T08:35:21.637Z,98.27
2023-01-22T08:37:19.787Z,97.43
2023-01-22T08:39:18.132Z,97.73
2023-01-22T08:41:16.842Z,98.04
2023-01-22T08:43:15.025Z,98.05
2023-01-22T08:45:13.303Z,96.96
2023-01-22T08:47:12.845Z,95.77
2023-01-22T08:49:11.287Z,94.95
2023-01-22T08:51:09.449Z,93.70
2023-01-22T08:53:07.914Z,91.58
2023-01-22T08:55:10.003Z,91.16
2023-01-22T08:57:08.155Z,91.31
2023-01-22T08:59:06.822Z,91.72
2023-01-22T09:01:05.432Z,93.01
2023-01-22T09:03:05.243Z,91.86
2023-01-22T09:05:03.540Z,90.57
2023-01-22T09:07:02.109Z,90.10
2023-01-22T09:09:01.778Z,89.28
2023-01-22T09:11:00.029Z,89.06
2023-01-22T09:13:00.036Z,89.21
2023-01-22T09:14:58.326Z,87.23
2023-01-22T09:16:56.535Z,83.13
2023-01-22T09:18:56.220Z,76.38
2023-01-22T09:20:54.532Z,74.28
2023-01-22T09:22:52.969Z,75.58
2023-01-22T09:24:51.305Z,77.63
2023-01-22T09:26:49.694Z,80.46
2023-01-22T09:28:47.983Z,81.52
2023-01-22T09:30:46.535Z,81.30
2023-01-22T09:32:44.745Z,79.90
2023-01-22T09:34:44.396Z,79.90
2023-01-22T09:36:43.234Z,76.68
2023-01-22T09:38:41.447Z,70.54
2023-01-22T09:40:45.501Z,62.32
2023-01-22T09:42:43.811Z,61.56
2023-01-22T09:44:46.101Z,63.24
2023-01-22T09:46:48.514Z,66.73
2023-01-22T09:48:52.764Z,64.37
2023-01-22T09:50:52.706Z,59.35
2023-01-22T09:52:52.736Z,54.84
2023-01-22T09:54:51.052Z,52.91
2023-01-22T09:56:54.566Z,51.58
2023-01-22T09:58:54.048Z,50.27
2023-01-22T10:00:55.409Z,52.85
2023-01-22T10:02:57.628Z,55.72
2023-01-22T10:05:01.892Z,60.27
2023-01-22T10:07:07.547Z,60.95
2023-01-22T10:09:15.369Z,62.39
2023-01-22T10:11:13.768Z,66.03
2023-01-22T10:13:18.748Z,67.73
2023-01-22T10:15:21.525Z,70.60
2023-01-22T10:17:23.378Z,73.66
2023-01-22T10:19:25.580Z,76.12
2023-01-22T10:21:26.865Z,79.16
2023-01-22T10:23:27.372Z,80.52
2023-01-22T10:25:25.611Z,80.72
2023-01-22T10:27:33.099Z,75.97
2023-01-22T10:29:33.987Z,64.30
2023-01-22T10:31:34.503Z,63.88
2023-01-22T10:33:38.873Z,67.34
2023-01-22T10:35:44.352Z,70.38
2023-01-22T10:37:46.691Z,68.67
2023-01-22T10:39:50.695Z,60.88
2023-01-22T10:41:50.387Z,54.65
2023-01-22T10:43:49.025Z,50.90
2023-01-22T10:45:54.298Z,50.46
2023-01-22T10:47:52.734Z,56.42
2023-01-22T10:50:04.486Z,59.98
2023-01-22T10:52:08.843Z,59.66
2023-01-22T10:54:21.727Z,56.58
2023-01-22T10:56:31.555Z,57.75
2023-01-22T10:58:33.685Z,57.27
2023-01-22T11:00:50.322Z,51.89
2023-01-22T11:02:51.484Z,48.09
2023-01-22T11:04:49.839Z,47.15
2023-01-22T11:06:51.736Z,45.52
2023-01-22T11:08:54.888Z,46.27
2023-01-22T11:10:56.535Z,48.83
2023-01-22T11:13:00.404Z,47.43
2023-01-22T11:15:09.138Z,48.44
2023-01-22T11:17:16.187Z,49.53
2023-01-22T11:19:18.116Z,54.73
2023-01-22T11:21:25.131Z,60.25
2023-01-22T11:23:33.745Z,64.82
2023-01-22T11:25:45.581Z,68.39
2023-01-22T11:28:02.498Z,70.17
2023-01-22T11:30:14.858Z,71.67
2023-01-22T11:32:37.034Z,72.80
2023-01-22T11:34:50.104Z,74.20
2023-01-22T11:36:55.562Z,75.76
2023-01-22T11:38:58.280Z,76.84
2023-01-22T11:41:18.885Z,75.77
2023-01-22T11:43:33.461Z,75.94
2023-01-22T11:46:09.591Z,74.84
2023-01-22T11:48:31.264Z,73.98
2023-01-22T11:50:35.992Z,73.41
2023-01-22T11:52:47.728Z,74.21
2023-01-22T11:55:08.057Z,75.19
2023-01-22T11:57:14.789Z,76.14
2023-01-22T11:59:24.299Z,75.72
2023-01-22T12:01:34.092Z,75.55
2023-01-22T12:04:09.364Z,75.63
2023-01-22T12:06:23.656Z,76.28
2023-01-22T12:08:45.895Z,76.11
2023-01-22T12:11:11.443Z,75.86
2023-01-22T12:13:21.499Z,75.85
2023-01-22T12:15:38.209Z,75.64
2023-01-22T12:17:47.885Z,75.06
2023-01-22T12:20:14.220Z,74.83
2023-01-22T12:22:25.434Z,75.07
2023-01-22T12:24:30.409Z,74.75
2023-01-22T12:26:32.987Z,74.18
2023-01-22T12:28:39.272Z,75.04
2023-01-22T12:30:46.939Z,75.72
2023-01-22T12:32:50.677Z,75.61
2023-01-22T12:34:55.095Z,75.06
2023-01-22T12:36:55.405Z,74.57
2023-01-22T12:38:58.701Z,74.63
2023-01-22T12:41:33.286Z,74.28
2023-01-22T12:43:38.829Z,73.41
2023-01-22T12:45:49.505Z,73.25
2023-01-22T12:47:55.757Z,73.34
2023-01-22T12:49:54.680Z,73.16
2023-01-22T12:51:54.969Z,73.34
2023-01-22T12:53:53.254Z,73.66
2023-01-22T12:55:59.557Z,74.06
2023-01-22T12:57:58.813Z,74.35
2023-01-22T12:59:58.690Z,73.95
2023-01-22T13:02:02.614Z,73.95
2023-01-22T13:04:02.809Z,74.40
2023-01-22T13:06:02.940Z,75.26
2023-01-22T13:08:05.962Z,75.58
2023-01-22T13:10:08.872Z,75.61
2023-01-22T13:12:11.191Z,76.06
2023-01-22T13:14:19.637Z,76.13
2023-01-22T13:16:35.125Z,76.61
2023-01-22T13:18:42.766Z,76.85
2023-01-22T13:20:49.856Z,77.03
2023-01-22T13:22:48.662Z,77.60
2023-01-22T13:24:51.269Z,78.60
2023-01-22T13:26:56.608Z,78.98
2023-01-22T13:28:57.107Z,79.11
2023-01-22T13:31:03.845Z,78.33
2023-01-22T13:33:12.949Z,77.37
2023-01-22T13:35:13.651Z,78.29
2023-01-22T13:37:22.867Z,78.60
2023-01-22T13:39:22.810Z,79.27
2023-01-22T13:41:28.396Z,79.45
2023-01-22T13:43:28.097Z,79.49
2023-01-22T13:45:28.299Z,79.83
2023-01-22T13:47:29.713Z,80.00
2023-01-22T13:49:29.788Z,80.44
2023-01-22T13:51:30.023Z,80.33
2023-01-22T13:53:33.120Z,80.30
2023-01-22T13:55:31.905Z,80.37
2023-01-22T13:57:30.216Z,80.86
2023-01-22T13:59:35.203Z,80.95
2023-01-22T14:01:36.173Z,80.64
2023-01-22T14:03:34.513Z,80.87
2023-01-22T14:05:35.783Z,80.18
2023-01-22T14:07:38.019Z,80.46
2023-01-22T14:09:39.094Z,80.58
2023-01-22T14:11:41.168Z,80.96
2023-01-22T14:13:41.262Z,81.37
2023-01-22T14:15:41.022Z,81.32
2023-01-22T14:17:39.142Z,81.53
2023-01-22T14:19:37.905Z,81.72
2023-01-22T14:21:37.461Z,81.61
2023-01-22T14:23:37.079Z,81.89
2023-01-22T14:25:38.458Z,82.56
2023-01-22T14:27:45.690Z,82.83
2023-01-22T14:29:43.948Z,82.80
2023-01-22T14:31:42.293Z,83.17
2023-01-22T14:33:40.540Z,83.60
2023-01-22T14:35:38.767Z,83.69
2023-01-22T14:37:41.185Z,83.83
2023-01-22T14:39:40.825Z,84.17
2023-01-22T14:41:39.098Z,84.11
2023-01-22T14:43:37.225Z,84.29
2023-01-22T14:45:35.952Z,84.60
2023-01-22T14:47:34.902Z,84.90
2023-01-22T14:49:35.119Z,85.43
2023-01-22T14:51:33.319Z,85.71
2023-01-22T14:53:31.726Z,86.08
2023-01-22T14:55:31.297Z,86.45
2023-01-22T14:57:29.571Z,86.76
2023-01-22T14:59:27.720Z,86.68
2023-01-22T15:01:26.337Z,86.96
2023-01-22T15:03:24.424Z,86.79
2023-01-22T15:05:22.954Z,87.19
2023-01-22T15:07:21.245Z,87.01
2023-01-22T15:09:19.406Z,86.97
2023-01-22T15:11:18.951Z,87.21
2023-01-22T15:13:17.233Z,87.88
2023-01-22T15:15:15.949Z,88.53
2023-01-22T15:17:14.254Z,89.36
2023-01-22T15:19:12.406Z,89.22
2023-01-22T15:21:11.727Z,89.58
2023-01-22T15:23:09.888Z,90.26
2023-01-22T15:25:10.086Z,90.05
2023-01-22T15:27:09.817Z,89.67
2023-01-22T15:29:09.554Z,89.21
2023-01-22T15:31:08.779Z,89.05
2023-01-22T15:33:06.998Z,89.25
2023-01-22T15:35:05.723Z,89.75
2023-01-22T15:37:05.132Z,90.36
2023-01-22T15:39:03.672Z,90.44
2023-01-22T15:41:20.527Z,89.74
2023-01-22T15:43:20.185Z,89.88
2023-01-22T15:45:18.394Z,90.40
2023-01-22T15:47:16.716Z,91.05
2023-01-22T15:49:15.280Z,92.05
2023-01-22T15:51:14.652Z,92.77
2023-01-22T15:53:12.989Z,90.90
2023-01-22T15:55:11.554Z,91.32
2023-01-22T15:57:09.916Z,91.56
2023-01-22T15:59:09.529Z,91.61
2023-01-22T16:01:07.740Z,92.22
2023-01-22T16:03:06.402Z,92.44
2023-01-22T16:05:05.676Z,92.86
2023-01-22T16:07:04.026Z,93.37
2023-01-22T16:09:03.931Z,93.35
2023-01-22T16:11:02.234Z,93.59
2023-01-22T16:13:00.626Z,93.35
2023-01-22T16:15:00.678Z,93.61
2023-01-22T16:16:59.337Z,93.58
2023-01-22T16:18:59.516Z,93.92
2023-01-22T16:21:01.902Z,94.46
2023-01-22T16:23:00.889Z,94.62
2023-01-22T16:24:59.321Z,94.75
2023-01-22T16:26:57.744Z,93.99
2023-01-22T16:28:57.695Z,92.56
2023-01-22T16:30:57.729Z,92.49
2023-01-22T16:32:56.211Z,92.02
2023-01-22T16:34:54.592Z,92.27
2023-01-22T16:36:52.968Z,91.89
2023-01-22T16:38:51.791Z,91.99
2023-01-22T16:40:50.800Z,92.12
2023-01-22T16:42:59.812Z,92.59
2023-01-22T16:44:58.081Z,92.28
2023-01-22T16:47:00.046Z,92.63
2023-01-22T16:49:00.609Z,93.11
2023-01-22T16:50:59.088Z,92.74
2023-01-22T16:52:57.509Z,93.31
2023-01-22T16:54:56.098Z,92.82
2023-01-22T16:56:54.769Z,93.00
2023-01-22T16:58:53.247Z,93.36
2023-01-22T17:00:52.001Z,93.16
2023-01-22T17:02:51.778Z,92.94
2023-01-22T17:04:51.663Z,92.62
2023-01-22T17:06:51.542Z,92.78
2023-01-22T17:08:50.317Z,93.04
2023-01-22T17:10:49.363Z,92.74
2023-01-22T17:12:47.886Z,92.55
2023-01-22T17:14:48.415Z,92.75
2023-01-22T17:16:47.551Z,93.15
2023-01-22T17:18:47.448Z,92.87
2023-01-22T17:21:01.176Z,92.77
2023-01-22T17:23:01.908Z,92.91
2023-01-22T17:25:00.439Z,92.75
2023-01-22T17:27:02.246Z,93.00
2023-01-22T17:29:00.857Z,93.08
2023-01-22T17:30:59.275Z,92.50
2023-01-22T17:32:57.331Z,92.10
2023-01-22T17:34:57.236Z,92.08
2023-01-22T17:36:56.216Z,91.68
2023-01-22T17:38:56.920Z,91.09
2023-01-22T17:40:58.305Z,91.43
2023-01-22T17:42:56.800Z,89.78
2023-01-22T17:44:55.210Z,90.05
2023-01-22T17:46:55.568Z,90.48
2023-01-22T17:48:54.728Z,91.01
2023-01-22T17:50:54.674Z,91.38
2023-01-22T17:52:53.253Z,91.53
2023-01-22T17:54:54.122Z,92.13
2023-01-22T17:56:53.390Z,92.38
2023-01-22T17:58:54.590Z,92.98
2023-01-22T18:00:53.676Z,93.13
2023-01-22T18:02:54.720Z,93.48
2023-01-22T18:04:53.404Z,93.59
2023-01-22T18:06:53.869Z,94.25
2023-01-22T18:08:52.493Z,94.63
2023-01-22T18:10:50.957Z,94.64
2023-01-22T18:12:49.453Z,94.90
2023-01-22T18:14:48.095Z,94.91
2023-01-22T18:16:47.358Z,94.71
2023-01-22T18:18:46.373Z,95.09
2023-01-22T18:20:48.327Z,95.43
2023-01-22T18:22:48.180Z,95.57
2023-01-22T18:24:46.657Z,95.75
2023-01-22T18:26:45.305Z,95.83
2023-01-22T18:28:43.741Z,95.73
2023-01-22T18:30:42.496Z,95.99
2023-01-22T18:32:40.828Z,95.81
2023-01-22T18:34:39.269Z,95.94
2023-01-22T18:36:39.928Z,96.42
2023-01-22T18:38:39.487Z,96.00
2023-01-22T18:40:37.961Z,95.45
2023-01-22T18:42:36.292Z,95.48
2023-01-22T18:44:34.514Z,95.45
2023-01-22T18:46:34.310Z,95.10
2023-01-22T18:48:32.941Z,95.77
2023-01-22T18:50:31.219Z,95.71
2023-01-22T18:52:29.358Z,95.65
2023-01-22T18:54:32.834Z,95.83
2023-01-22T18:56:31.040Z,95.71
2023-01-22T18:58:31.148Z,95.37
2023-01-22T19:00:29.575Z,95.82
2023-01-22T19:02:27.740Z,95.51
2023-01-22T19:04:27.959Z,95.67
2023-01-22T19:06:28.420Z,96.16
2023-01-22T19:08:27.226Z,95.73
2023-01-22T19:10:28.160Z,95.94
2023-01-22T19:12:26.299Z,95.89
2023-01-22T19:14:24.683Z,95.99
2023-01-22T19:16:24.036Z,96.36
2023-01-22T19:18:22.247Z,96.79
2023-01-22T19:20:20.602Z,96.91
2023-01-22T19:22:18.797Z,96.72
2023-01-22T19:24:18.719Z,97.07
2023-01-22T19:26:20.996Z,97.00
2023-01-22T19:28:19.159Z,96.94
2023-01-22T19:30:19.178Z,97.36
2023-01-22T19:32:22.336Z,97.01
2023-01-22T19:34:24.791Z,97.49
2023-01-22T19:36:25.038Z,97.80
2023-01-22T19:38:23.563Z,97.57
2023-01-22T19:40:22.319Z,97.77
2023-01-22T19:42:22.178Z,97.71
2023-01-22T19:44:20.412Z,98.14
2023-01-22T19:46:18.725Z,98.16
2023-01-22T19:48:16.959Z,98.48
2023-01-22T19:50:15.186Z,97.79
2023-01-22T19:52:14.696Z,98.30
2023-01-22T19:54:13.906Z,98.20
2023-01-22T19:56:18.980Z,98.39
2023-01-22T19:58:18.636Z,98.55
2023-01-22T20:00:17.536Z,98.75
2023-01-22T20:02:15.852Z,98.89
2023-01-22T20:04:20.630Z,98.83
2023-01-22T20:06:19.531Z,98.96
2023-01-22T20:08:17.925Z,98.90
2023-01-22T20:10:19.182Z,98.99
2023-01-22T20:12:17.580Z,99.13
2023-01-22T20:14:17.297Z,99.04
2023-01-22T20:16:20.411Z,99.31
2023-01-22T20:18:18.722Z,99.34
2023-01-22T20:20:17.521Z,99.70
2023-01-22T20:22:16.114Z,99.67
2023-01-22T20:24:14.524Z,99.71
2023-01-22T20:26:13.332Z,99.74
2023-01-22T20:28:13.580Z,99.94
2023-01-22T20:30:13.790Z,99.68
2023-01-22T20:32:12.040Z,99.52
2023-01-22T20:34:10.236Z,99.84
2023-01-22T20:36:11.256Z,99.42
2023-01-22T20:38:09.424Z,99.54
2023-01-22T20:40:15.484Z,99.12
2023-01-22T20:42:14.066Z,99.48
2023-01-22T20:44:13.086Z,99.62
2023-01-22T20:46:16.325Z,100.00
2023-01-22T20:48:14.531Z,100.00
2023-01-22T20:50:13.181Z,100.00
2023-01-22T20:52:11.394Z,100.00
2023-01-22T20:54:10.499Z,100.00
2023-01-22T20:56:12.342Z,100.00
2023-01-22T20:58:10.658Z,100.00
2023-01-22T21:00:11.548Z,100.00
2023-01-22T21:02:14.352Z,100.00
2023-01-22T21:04:13.460Z,100.00
2023-01-22T21:06:14.401Z,100.00
2023-01-22T21:08:12.944Z,100.00
2023-01-22T21:10:15.336Z,100.00
2023-01-22T21:12:14.387Z,100.00
2023-01-22T21:14:18.224Z,100.00
2023-01-22T21:16:19.330Z,100.00
2023-01-22T21:18:19.510Z,100.00
2023-01-22T21:20:21.192Z,100.00
2023-01-22T21:22:20.356Z,100.00
2023-01-22T21:24:19.823Z,100.00
2023-01-22T21:26:19.565Z,100.00
2023-01-22T21:28:17.992Z,100.00
2023-01-22T21:30:19.153Z,100.00
2023-01-22T21:32:19.498Z,100.00
2023-01-22T21:34:21.157Z,100.00
2023-01-22T21:36:20.193Z,100.00
2023-01-22T21:38:18.859Z,100.00
2023-01-22T21:40:19.611Z,100.00
2023-01-22T21:42:36.881Z,100.00
2023-01-22T21:44:52.991Z,100.00
2023-01-22T21:46:51.923Z,100.00
2023-01-22T21:48:50.643Z,100.00
2023-01-22T21:50:50.602Z,100.00
2023-01-22T21:52:59.232Z,100.00
2023-01-22T21:54:59.191Z,100.00
2023-01-22T21:56:58.352Z,100.00
2023-01-22T21:58:57.472Z,100.00
2023-01-22T22:00:55.983Z,100.00
2023-01-22T22:02:55.431Z,100.00
2023-01-22T22:04:53.917Z,100.00
2023-01-22T22:06:54.748Z,100.00
2023-01-22T22:08:53.170Z,100.00
2023-01-22T22:10:52.342Z,100.00
2023-01-22T22:12:55.060Z,100.00
2023-01-22T22:14:53.489Z,100.00
2023-01-22T22:16:52.309Z,100.00
2023-01-22T22:18:50.721Z,100.00
2023-01-22T22:20:49.248Z,100.00
2023-01-22T22:22:48.999Z,99.83
2023-01-22T22:24:47.395Z,99.44
2023-01-22T22:26:47.774Z,98.39
2023-01-22T22:28:46.302Z,97.67
2023-01-22T22:30:45.234Z,96.35
2023-01-22T22:32:43.886Z,96.06
2023-01-22T22:34:42.493Z,95.70
2023-01-22T22:36:40.992Z,95.43
2023-01-22T22:38:40.799Z,95.52
2023-01-22T22:40:39.376Z,95.20
2023-01-22T22:42:37.835Z,95.00
2023-01-22T22:44:37.614Z,94.35
2023-01-22T22:46:37.695Z,93.97
2023-01-22T22:48:36.415Z,93.79
2023-01-22T22:50:34.740Z,93.55
2023-01-22T22:52:34.986Z,93.87
2023-01-22T22:54:35.019Z,93.66
2023-01-22T22:56:35.080Z,94.03
2023-01-22T22:58:34.887Z,93.56
2023-01-22T23:00:33.266Z,93.90
2023-01-22T23:02:31.590Z,93.41
2023-01-22T23:04:29.878Z,93.14
2023-01-22T23:06:30.113Z,93.15
2023-01-22T23:08:41.281Z,93.59
2023-01-22T23:10:41.149Z,93.45
2023-01-22T23:12:39.345Z,93.89
2023-01-22T23:14:37.842Z,93.98
2023-01-22T23:16:37.990Z,94.34
2023-01-22T23:18:37.212Z,94.47
2023-01-22T23:20:36.632Z,94.18
2023-01-22T23:22:34.932Z,94.12
2023-01-22T23:24:33.269Z,93.96
2023-01-22T23:26:32.981Z,93.58
2023-01-22T23:28:31.219Z,93.83
2023-01-22T23:30:29.597Z,92.88
2023-01-22T23:32:27.832Z,92.69
2023-01-22T23:34:25.943Z,93.06
2023-01-22T23:36:24.619Z,92.89
2023-01-22T23:38:22.835Z,92.94
2023-01-22T23:40:21.453Z,92.67
2023-01-22T23:42:21.198Z,92.80
2023-01-22T23:44:20.329Z,92.90
2023-01-22T23:46:20.634Z,92.93
2023-01-22T23:48:19.040Z,92.95
2023-01-22T23:50:18.088Z,93.10
2023-01-22T23:52:16.406Z,93.11
2023-01-22T23:54:14.816Z,93.60
2023-01-22T23:56:14.464Z,93.98
2023-01-22T23:58:14.256Z,93.91
